Main page
METAR-TAF:

METAR-TAF

Airports :

Prairie du Chien Municipal Airport

Prairie du Chien, Wisconsin, United States

latitude: 43-01-19N, longitude: 091-07-29W, elevation: 659 ft

Current weather observation

The report was made 22 minutes ago, at 10:15 UTC
Wind 15 mph from the East with gusts up to 22 mph
Temperature 55°F
Humidity 44%
Pressure 29.90 in. Hg
Visibility: 10 miles
Scattered clouds at a height of 7000 ft
Broken clouds at a height of 8000 ft

METAR: KPDC 161015Z AUTO 10013G19KT 10SM SCT070 BKN080 13/01 A2990 RMK AO2 T01310010

Time: 05:37 (10:37 UTC)


TAF: missing

Weather observations and forecasts of more than 4000 airports (METAR and TAF reports).

The available stations are represented by yellow and red dots on the map.

Hover mouse over dot to see the name of the station.

Then click to see weather observations and forecasts.

To change the map : click on the green buttons with a black cross to zoom in, on the green button with a dash to zoom out, or on the green arrows for adjacent maps.


METAR-TAF: